createdAt,value
2022-09-13T00:00:59.850Z,95562.69
2022-09-13T00:03:04.827Z,95563.78
2022-09-13T00:05:08.019Z,95555.75
2022-09-13T00:07:10.674Z,95554.94
2022-09-13T00:09:13.841Z,95546.28
2022-09-13T00:11:18.807Z,95549.31
2022-09-13T00:13:21.507Z,95553.72
2022-09-13T00:15:24.244Z,95556.00
2022-09-13T00:17:27.164Z,95556.69
2022-09-13T00:19:31.259Z,95553.97
2022-09-13T00:21:34.221Z,95547.03
2022-09-13T00:23:37.979Z,95548.94
2022-09-13T00:25:40.764Z,95556.34
2022-09-13T00:27:44.635Z,95541.97
2022-09-13T00:29:47.285Z,95533.84
2022-09-13T00:31:50.086Z,95350.75
2022-09-13T00:33:53.004Z,95305.41
2022-09-13T00:35:56.985Z,95517.56
2022-09-13T00:38:01.274Z,95540.16
2022-09-13T00:40:05.261Z,95539.13
2022-09-13T00:42:11.366Z,95493.91
2022-09-13T00:44:55.088Z,95546.47
2022-09-13T00:46:57.943Z,95540.31
2022-09-13T00:49:05.443Z,95106.97
2022-09-13T00:51:11.629Z,95532.84
2022-09-13T00:53:18.040Z,95521.22
2022-09-13T00:55:25.563Z,95528.97
2022-09-13T00:57:30.161Z,95538.13
2022-09-13T00:59:38.464Z,95530.66
2022-09-13T01:01:48.800Z,95531.81
2022-09-13T01:03:51.987Z,95524.72
2022-09-13T01:05:58.813Z,95529.63
2022-09-13T01:08:04.293Z,95525.31
2022-09-13T01:10:09.025Z,95524.28
2022-09-13T01:12:18.909Z,95527.00
2022-09-13T01:14:23.399Z,95527.38
2022-09-13T01:16:26.684Z,95395.09
2022-09-13T01:18:29.511Z,95507.16
2022-09-13T01:20:47.590Z,95508.34
2022-09-13T01:23:37.015Z,95512.06
2022-09-13T01:26:19.873Z,95514.31
2022-09-13T01:28:57.282Z,95514.94
2022-09-13T01:31:08.255Z,95519.78
2022-09-13T01:33:27.082Z,95525.03
2022-09-13T01:35:43.368Z,95522.09
2022-09-13T01:37:54.214Z,95531.53
2022-09-13T01:40:06.941Z,95429.72
2022-09-13T01:42:21.307Z,95530.81
2022-09-13T01:44:36.900Z,95524.31
2022-09-13T01:46:49.662Z,95521.59
2022-09-13T01:48:57.894Z,95358.09
2022-09-13T01:51:07.031Z,95250.75
2022-09-13T01:53:23.053Z,95523.84
2022-09-13T01:55:35.917Z,95525.47
2022-09-13T01:57:44.942Z,95516.25
2022-09-13T01:59:52.453Z,95528.16
2022-09-13T02:02:02.393Z,95525.53
2022-09-13T02:04:10.352Z,95529.97
2022-09-13T02:06:19.384Z,95537.94
2022-09-13T02:08:30.238Z,95527.97
2022-09-13T02:10:39.358Z,95534.25
2022-09-13T02:12:44.469Z,95534.59
2022-09-13T02:14:53.135Z,95544.28
2022-09-13T02:17:02.574Z,95532.06
2022-09-13T02:19:10.768Z,95536.69
2022-09-13T02:21:18.806Z,95533.97
2022-09-13T02:23:31.338Z,95536.63
2022-09-13T02:25:37.730Z,95540.47
2022-09-13T02:27:45.763Z,95536.22
2022-09-13T02:29:52.053Z,95534.59
2022-09-13T02:32:01.156Z,95503.19
2022-09-13T02:34:08.390Z,95541.81
2022-09-13T02:36:16.392Z,95534.19
2022-09-13T02:38:24.188Z,95536.56
2022-09-13T02:40:31.485Z,95539.31
2022-09-13T02:42:38.619Z,95539.03
2022-09-13T02:44:44.565Z,95426.16
2022-09-13T02:47:11.965Z,95583.53
2022-09-13T02:49:23.747Z,95621.97
2022-09-13T02:51:33.369Z,95537.38
2022-09-13T02:53:44.246Z,95532.88
2022-09-13T02:55:58.444Z,95536.47
2022-09-13T02:58:05.876Z,95526.41
2022-09-13T03:00:10.003Z,95525.56
2022-09-13T03:02:18.108Z,95522.00
2022-09-13T03:04:21.417Z,95525.44
2022-09-13T03:06:25.288Z,95529.78
2022-09-13T03:08:29.167Z,95473.00
2022-09-13T03:10:42.159Z,95512.16
2022-09-13T03:13:12.201Z,95508.81
2022-09-13T03:15:25.767Z,95504.81
2022-09-13T03:17:47.312Z,95502.44
2022-09-13T03:20:04.873Z,95505.94
2022-09-13T03:22:29.283Z,95327.09
2022-09-13T03:24:42.061Z,95504.56
2022-09-13T03:26:55.835Z,95501.56
2022-09-13T03:29:12.149Z,95502.94
2022-09-13T03:31:22.939Z,95496.69
2022-09-13T03:33:32.211Z,95495.31
2022-09-13T03:35:41.325Z,95490.69
2022-09-13T03:37:53.524Z,95490.19
2022-09-13T03:40:01.227Z,95457.09
2022-09-13T03:42:11.108Z,95495.44
2022-09-13T03:44:18.329Z,95497.13
2022-09-13T03:46:27.232Z,95500.31
2022-09-13T03:48:32.600Z,95489.22
2022-09-13T03:50:36.588Z,95493.59
2022-09-13T03:52:42.242Z,95500.59
2022-09-13T03:54:48.642Z,95497.13
2022-09-13T03:57:12.872Z,95502.78
2022-09-13T03:59:15.823Z,95498.97
2022-09-13T04:01:21.827Z,95439.59
2022-09-13T04:03:24.718Z,95480.13
2022-09-13T04:05:28.845Z,95494.25
2022-09-13T04:07:31.703Z,95489.41
2022-09-13T04:09:34.789Z,95488.09
2022-09-13T04:11:37.977Z,95416.56
2022-09-13T04:13:41.383Z,95482.91
2022-09-13T04:15:44.104Z,95412.78
2022-09-13T04:17:46.822Z,95488.78
2022-09-13T04:19:49.663Z,95496.34
2022-09-13T04:21:55.915Z,95201.88
2022-09-13T04:23:58.634Z,95505.06
2022-09-13T04:26:05.871Z,95359.47
2022-09-13T04:28:09.483Z,95501.88
2022-09-13T04:30:13.341Z,95435.03
2022-09-13T04:32:16.111Z,95499.66
2022-09-13T04:34:19.379Z,95427.19
2022-09-13T04:36:22.956Z,95452.59
2022-09-13T04:38:27.255Z,95503.13
2022-09-13T04:40:30.019Z,95508.63
2022-09-13T04:42:32.645Z,95515.88
2022-09-13T04:44:35.299Z,95423.28
2022-09-13T04:46:37.932Z,95519.66
2022-09-13T04:48:40.554Z,95506.91
2022-09-13T04:50:43.223Z,95511.13
2022-09-13T04:52:45.856Z,95511.38
2022-09-13T04:54:49.794Z,95507.53
2022-09-13T04:56:52.411Z,95503.69
2022-09-13T04:58:56.413Z,95502.84
2022-09-13T05:01:02.540Z,95500.81
2022-09-13T05:03:05.327Z,95499.72
2022-09-13T05:05:08.784Z,95499.97
2022-09-13T05:07:11.569Z,95501.13
2022-09-13T05:09:15.064Z,95507.63
2022-09-13T05:11:19.355Z,95501.63
2022-09-13T05:13:22.006Z,95503.75
2022-09-13T05:15:24.670Z,95514.22
2022-09-13T05:17:27.506Z,95531.81
2022-09-13T05:19:30.321Z,95527.41
2022-09-13T05:21:33.258Z,95537.88
2022-09-13T05:23:35.869Z,95543.75
2022-09-13T05:25:38.492Z,95540.25
2022-09-13T05:27:42.492Z,95535.66
2022-09-13T05:29:45.100Z,95472.56
2022-09-13T05:31:47.875Z,95533.38
2022-09-13T05:33:54.819Z,95529.47
2022-09-13T05:35:57.538Z,95275.06
2022-09-13T05:38:00.160Z,95541.16
2022-09-13T05:40:14.250Z,95536.00
2022-09-13T05:42:17.377Z,95534.66
2022-09-13T05:44:21.394Z,95537.28
2022-09-13T05:46:24.201Z,95537.22
2022-09-13T05:48:27.125Z,95536.66
2022-09-13T05:50:56.794Z,95529.56
2022-09-13T05:52:53.666Z,95471.28
2022-09-13T05:54:56.384Z,95431.06
2022-09-13T05:56:59.042Z,95531.53
2022-09-13T05:59:01.730Z,95531.53
2022-09-13T06:01:06.147Z,95532.56
2022-09-13T06:03:09.358Z,95543.41
2022-09-13T06:05:12.609Z,95531.00
2022-09-13T06:07:15.315Z,95549.19
2022-09-13T06:09:18.719Z,95548.09
2022-09-13T06:11:21.653Z,95550.13
2022-09-13T06:13:24.854Z,95538.13
2022-09-13T06:15:27.614Z,95540.63
2022-09-13T06:17:31.797Z,95550.56
2022-09-13T06:19:34.548Z,95546.75
2022-09-13T06:21:37.283Z,95554.97
2022-09-13T06:23:40.067Z,95552.16
2022-09-13T06:25:43.251Z,95555.22
2022-09-13T06:27:45.955Z,95552.34
2022-09-13T06:29:48.622Z,95536.59
2022-09-13T06:31:51.303Z,95544.00
2022-09-13T06:33:59.021Z,95534.81
2022-09-13T06:36:02.651Z,95543.47
2022-09-13T06:38:05.455Z,95535.66
2022-09-13T06:40:09.523Z,95538.38
2022-09-13T06:42:12.452Z,95545.06
2022-09-13T06:44:15.977Z,95527.09
2022-09-13T06:46:24.611Z,95526.50
2022-09-13T06:48:28.725Z,95530.28
2022-09-13T06:50:32.888Z,95539.22
2022-09-13T06:52:35.616Z,95534.69
2022-09-13T06:54:38.323Z,95540.50
2022-09-13T06:56:41.049Z,95535.06
2022-09-13T06:58:46.528Z,95541.91
2022-09-13T07:00:51.873Z,95539.56
2022-09-13T07:02:58.203Z,95540.56
2022-09-13T07:05:00.897Z,95328.63
2022-09-13T07:07:04.966Z,95538.19
2022-09-13T07:09:09.888Z,95531.31
2022-09-13T07:11:14.815Z,95532.69
2022-09-13T07:13:17.563Z,95523.44
2022-09-13T07:15:20.510Z,95523.19
2022-09-13T07:17:23.167Z,95536.66
2022-09-13T07:19:27.377Z,95501.47
2022-09-13T07:21:30.510Z,95527.06
2022-09-13T07:23:35.806Z,95526.63
2022-09-13T07:25:38.459Z,95526.69
2022-09-13T07:27:41.950Z,95540.97
2022-09-13T07:29:44.689Z,95543.50
2022-09-13T07:31:49.348Z,95542.97
2022-09-13T07:33:55.449Z,95536.94
2022-09-13T07:35:59.732Z,95546.75
2022-09-13T07:38:02.440Z,95531.56
2022-09-13T07:40:07.960Z,95533.81
2022-09-13T07:42:10.705Z,95531.41
2022-09-13T07:44:13.778Z,95440.13
2022-09-13T07:46:18.312Z,95165.91
2022-09-13T07:48:21.042Z,95529.72
2022-09-13T07:50:23.731Z,95461.38
2022-09-13T07:52:26.462Z,95520.44
2022-09-13T07:54:30.178Z,95522.19
2022-09-13T07:56:35.800Z,95507.75
2022-09-13T07:58:40.329Z,95506.00
2022-09-13T08:00:43.139Z,95500.69
2022-09-13T08:02:45.987Z,95505.81
2022-09-13T08:04:48.842Z,95491.84
2022-09-13T08:06:51.578Z,95498.41
2022-09-13T08:08:55.147Z,95440.72
2022-09-13T08:10:58.180Z,95498.09
2022-09-13T08:13:02.650Z,95498.69
2022-09-13T08:15:06.538Z,95502.84
2022-09-13T08:17:10.553Z,95511.69
2022-09-13T08:19:15.843Z,95514.41
2022-09-13T08:21:19.115Z,95510.09
2022-09-13T08:23:21.923Z,95502.47
2022-09-13T08:25:24.652Z,95513.38
2022-09-13T08:27:29.094Z,95514.75
2022-09-13T08:29:33.266Z,95487.75
2022-09-13T08:31:36.701Z,95512.78
2022-09-13T08:33:44.228Z,95516.53
2022-09-13T08:35:53.026Z,95509.69
2022-09-13T08:37:56.031Z,95515.72
2022-09-13T08:39:58.816Z,95529.06
2022-09-13T08:42:24.750Z,95521.84
2022-09-13T08:44:31.163Z,95581.31
2022-09-13T08:46:38.717Z,95539.41
2022-09-13T08:48:45.570Z,95444.16
2022-09-13T08:50:53.392Z,95527.22
2022-09-13T08:55:09.249Z,95522.13
2022-09-13T08:57:19.382Z,95510.47
2022-09-13T08:59:37.514Z,95498.72
2022-09-13T09:01:51.815Z,95496.19
2022-09-13T09:04:04.509Z,95492.31
2022-09-13T09:06:13.179Z,95484.78
2022-09-13T09:08:27.864Z,95473.94
2022-09-13T09:10:33.604Z,95474.88
2022-09-13T09:12:42.659Z,94987.91
2022-09-13T09:14:51.081Z,95488.19
2022-09-13T09:16:58.459Z,95478.53
2022-09-13T09:19:10.990Z,95462.47
2022-09-13T09:21:18.516Z,95484.75
2022-09-13T09:23:25.411Z,95490.09
2022-09-13T09:25:28.279Z,95484.78
2022-09-13T09:27:32.347Z,95443.56
2022-09-13T09:29:38.192Z,95501.41
2022-09-13T09:31:49.855Z,95498.47
2022-09-13T09:34:09.033Z,95502.19
2022-09-13T09:36:20.070Z,95506.78
2022-09-13T09:38:42.777Z,95505.59
2022-09-13T09:40:45.628Z,95514.06
2022-09-13T09:42:49.831Z,95513.19
2022-09-13T09:44:54.733Z,95521.06
2022-09-13T09:47:02.430Z,95511.06
2022-09-13T09:49:30.397Z,95518.31
2022-09-13T09:51:34.559Z,95514.03
2022-09-13T09:53:43.497Z,95519.84
2022-09-13T09:55:50.322Z,95505.53
2022-09-13T09:57:55.654Z,95511.78
2022-09-13T10:00:13.146Z,95522.09
2022-09-13T10:02:18.652Z,95475.13
2022-09-13T10:04:23.868Z,95509.31
2022-09-13T10:06:30.117Z,95494.91
2022-09-13T10:08:36.975Z,95509.72
2022-09-13T10:10:43.666Z,95507.97
2022-09-13T10:12:51.884Z,95370.91
2022-09-13T10:15:05.553Z,95502.41
2022-09-13T10:17:18.317Z,95500.25
2022-09-13T10:19:28.194Z,95501.72
2022-09-13T10:21:31.017Z,95497.97
2022-09-13T10:23:35.390Z,95505.28
2022-09-13T10:25:39.743Z,95509.91
2022-09-13T10:27:48.716Z,95503.56
2022-09-13T10:29:55.329Z,95509.03
2022-09-13T10:31:58.987Z,95509.91
2022-09-13T10:34:04.674Z,95421.22
2022-09-13T10:36:29.571Z,95503.88
2022-09-13T10:38:45.511Z,95505.97
2022-09-13T10:40:49.318Z,95487.31
2022-09-13T10:42:54.428Z,95497.69
2022-09-13T10:44:59.148Z,95490.44
2022-09-13T10:47:05.573Z,95495.19
2022-09-13T10:49:39.233Z,95490.31
2022-09-13T10:51:43.937Z,95432.97
2022-09-13T10:53:47.422Z,95350.44
2022-09-13T10:55:54.828Z,95485.44
2022-09-13T10:58:14.736Z,95480.84
2022-09-13T11:00:20.176Z,95487.13
2022-09-13T11:02:38.933Z,95476.91
2022-09-13T11:05:08.618Z,95470.59
2022-09-13T11:07:33.508Z,95407.03
2022-09-13T11:09:43.202Z,95479.25
2022-09-13T11:11:57.907Z,95427.38
2022-09-13T11:14:15.029Z,95486.25
2022-09-13T11:16:32.832Z,95374.97
2022-09-13T11:18:58.089Z,95475.06
2022-09-13T11:21:10.143Z,95441.31
2022-09-13T11:23:36.650Z,95469.84
2022-09-13T11:26:07.973Z,95371.97
2022-09-13T11:28:21.956Z,95465.59
2022-09-13T11:30:29.914Z,95467.03
2022-09-13T11:32:48.484Z,95327.94
2022-09-13T11:35:19.778Z,95422.13
2022-09-13T11:37:41.170Z,95465.06
2022-09-13T11:39:56.033Z,95465.13
2022-09-13T11:42:09.862Z,95454.03
2022-09-13T11:44:42.175Z,95316.84
2022-09-13T11:46:52.084Z,95447.66
2022-09-13T11:49:07.774Z,95456.31
2022-09-13T11:51:21.118Z,95448.81
2022-09-13T11:53:50.315Z,95448.31
2022-09-13T11:55:59.553Z,95457.84
2022-09-13T11:58:05.447Z,95472.56
2022-09-13T12:00:20.336Z,95462.41
2022-09-13T12:02:29.648Z,95463.72
2022-09-13T12:04:38.366Z,95459.41
2022-09-13T12:06:43.993Z,95462.59
2022-09-13T12:08:51.381Z,95467.63
2022-09-13T12:10:57.763Z,95172.41
2022-09-13T12:13:04.058Z,95450.06
2022-09-13T12:15:14.889Z,95444.50
2022-09-13T12:17:27.933Z,95438.16
2022-09-13T12:19:37.630Z,95435.00
2022-09-13T12:21:43.871Z,95438.53
2022-09-13T12:23:54.379Z,95435.22
2022-09-13T12:26:03.421Z,95433.28
2022-09-13T12:28:14.173Z,95434.72
2022-09-13T12:30:19.949Z,95429.50
2022-09-13T12:32:23.742Z,95429.88
2022-09-13T12:34:33.370Z,95420.63
2022-09-13T12:37:07.124Z,95426.22
2022-09-13T12:39:27.066Z,95421.75
2022-09-13T12:41:47.352Z,95422.69
2022-09-13T12:44:31.685Z,95398.94
2022-09-13T12:47:17.043Z,95350.94
2022-09-13T12:49:34.608Z,95099.81
2022-09-13T12:51:56.593Z,95374.28
2022-09-13T12:54:23.787Z,95391.31
2022-09-13T12:56:41.849Z,95395.34
2022-09-13T12:59:06.304Z,95400.50
2022-09-13T13:01:15.143Z,95400.88
2022-09-13T13:03:21.161Z,95329.53
2022-09-13T13:05:30.930Z,95391.41
2022-09-13T13:07:37.916Z,95396.50
2022-09-13T13:09:43.632Z,95356.88
2022-09-13T13:11:50.816Z,95133.91
2022-09-13T13:14:03.489Z,95392.84
2022-09-13T13:16:23.451Z,95391.78
2022-09-13T13:18:30.203Z,95386.59
2022-09-13T13:21:22.513Z,95308.16
2022-09-13T13:23:29.988Z,95386.59
2022-09-13T13:25:39.100Z,95377.09
2022-09-13T13:27:48.581Z,95374.25
2022-09-13T13:30:37.190Z,95381.75
2022-09-13T13:33:06.506Z,95369.16
2022-09-13T13:35:29.921Z,95377.44
2022-09-13T13:37:36.773Z,95334.84
2022-09-13T13:39:41.911Z,95343.31
2022-09-13T13:41:52.563Z,95372.16
2022-09-13T13:43:56.708Z,95376.50
2022-09-13T13:46:15.439Z,94754.78
2022-09-13T13:48:36.380Z,95368.31
2022-09-13T13:51:17.383Z,95370.72
2022-09-13T13:53:24.657Z,95366.72
2022-09-13T13:55:45.146Z,95358.84
2022-09-13T13:57:58.358Z,95085.72
2022-09-13T14:00:14.569Z,95354.56
2022-09-13T14:02:22.161Z,95271.53
2022-09-13T14:05:00.859Z,95356.66
2022-09-13T14:07:21.059Z,95351.50
2022-09-13T14:09:33.735Z,95350.44
2022-09-13T14:11:49.253Z,95249.25
2022-09-13T14:14:04.449Z,95357.19
2022-09-13T14:16:16.105Z,95354.00
2022-09-13T14:18:45.020Z,95349.88
2022-09-13T14:21:01.744Z,95159.50
2022-09-13T14:23:14.177Z,95352.88
2022-09-13T14:25:25.299Z,95347.03
2022-09-13T14:27:30.477Z,95299.03
2022-09-13T14:29:33.370Z,95335.09
2022-09-13T14:31:39.024Z,95324.78
2022-09-13T14:33:41.846Z,95274.38
2022-09-13T14:35:44.567Z,95317.31
2022-09-13T14:37:47.307Z,95326.34
2022-09-13T14:39:57.554Z,95314.47
2022-09-13T14:42:02.354Z,95314.88
2022-09-13T14:44:23.682Z,95023.28
2022-09-13T14:46:32.979Z,95302.28
2022-09-13T14:48:42.204Z,95299.72
2022-09-13T14:50:52.736Z,95294.28
2022-09-13T14:52:58.473Z,95293.94
2022-09-13T14:55:04.705Z,95280.44
2022-09-13T14:57:11.090Z,95283.47
2022-09-13T14:59:18.921Z,95286.56
2022-09-13T15:01:27.838Z,95277.84
2022-09-13T15:03:30.985Z,95277.78
2022-09-13T15:05:37.396Z,94938.50
2022-09-13T15:07:42.040Z,95274.25
2022-09-13T15:09:44.920Z,95269.69
2022-09-13T15:12:01.066Z,95269.56
2022-09-13T15:14:27.143Z,95270.78
2022-09-13T15:16:32.692Z,94821.94
2022-09-13T15:18:37.344Z,95260.47
2022-09-13T15:20:50.423Z,95259.63
2022-09-13T15:22:54.010Z,95251.59
2022-09-13T15:24:58.898Z,95252.13
2022-09-13T15:27:07.415Z,95247.00
2022-09-13T15:29:19.530Z,95252.09
2022-09-13T15:31:24.445Z,95239.91
2022-09-13T15:33:29.844Z,95206.69
2022-09-13T15:35:37.670Z,94944.06
2022-09-13T15:37:41.803Z,95010.50
2022-09-13T15:39:50.083Z,95235.19
2022-09-13T15:41:54.342Z,95250.69
2022-09-13T15:43:57.028Z,95156.09
2022-09-13T15:46:01.740Z,95223.38
2022-09-13T15:48:04.666Z,95217.81
2022-09-13T15:50:08.147Z,95220.19
2022-09-13T15:52:11.352Z,95218.13
2022-09-13T15:54:17.082Z,95214.16
2022-09-13T15:56:21.903Z,95104.34
2022-09-13T15:58:24.932Z,95212.53
2022-09-13T16:00:29.041Z,94995.69
2022-09-13T16:02:33.850Z,95214.81
2022-09-13T16:04:36.666Z,95041.09
2022-09-13T16:06:40.266Z,95057.25
2022-09-13T16:08:43.162Z,95228.53
2022-09-13T16:10:47.996Z,95244.25
2022-09-13T16:12:51.446Z,95211.06
2022-09-13T16:14:54.911Z,95214.97
2022-09-13T16:16:57.757Z,95216.84
2022-09-13T16:19:00.435Z,95059.72
2022-09-13T16:21:03.120Z,95216.38
2022-09-13T16:23:05.810Z,95215.16
2022-09-13T16:25:09.475Z,95217.03
2022-09-13T16:27:14.851Z,95214.56
2022-09-13T16:29:17.601Z,95216.09
2022-09-13T16:31:20.452Z,95210.53
2022-09-13T16:33:23.226Z,95216.88
2022-09-13T16:35:28.895Z,95189.03
2022-09-13T16:37:31.761Z,95205.84
2022-09-13T16:39:34.636Z,95206.00
2022-09-13T16:41:39.257Z,95200.84
2022-09-13T16:43:49.741Z,95196.78
2022-09-13T16:45:52.509Z,95191.25
2022-09-13T16:47:55.434Z,95082.47
2022-09-13T16:49:58.194Z,95192.53
2022-09-13T16:52:01.311Z,95162.00
2022-09-13T16:54:04.329Z,95203.06
2022-09-13T16:56:07.759Z,95200.03
2022-09-13T16:58:10.448Z,95199.00
2022-09-13T17:00:19.158Z,94821.56
2022-09-13T17:02:22.364Z,95189.06
2022-09-13T17:04:25.719Z,94956.06
2022-09-13T17:06:28.828Z,95173.13
2022-09-13T17:08:32.111Z,95175.84
2022-09-13T17:10:34.873Z,95173.50
2022-09-13T17:12:37.681Z,95174.22
2022-09-13T17:14:42.613Z,95171.38
2022-09-13T17:16:48.901Z,94709.75
2022-09-13T17:18:52.208Z,95181.94
2022-09-13T17:20:54.929Z,95161.31
2022-09-13T17:22:57.767Z,95176.81
2022-09-13T17:25:01.631Z,94737.53
2022-09-13T17:27:06.674Z,95179.38
2022-09-13T17:29:09.557Z,95048.75
2022-09-13T17:31:12.402Z,95177.09
2022-09-13T17:33:16.600Z,95177.78
2022-09-13T17:35:19.334Z,95176.00
2022-09-13T17:37:21.980Z,95173.97
2022-09-13T17:39:24.957Z,95175.06
2022-09-13T17:41:27.814Z,95175.44
2022-09-13T17:43:30.671Z,95169.81
2022-09-13T17:45:33.946Z,95158.19
2022-09-13T17:47:36.589Z,95158.19
2022-09-13T17:49:40.805Z,95154.38
2022-09-13T17:51:43.475Z,95162.03
2022-09-13T17:53:48.584Z,95110.66
2022-09-13T17:55:51.670Z,95051.94
2022-09-13T17:57:55.695Z,95159.25
2022-09-13T17:59:58.377Z,95166.47
2022-09-13T18:02:01.303Z,95166.56
2022-09-13T18:04:04.362Z,94956.06
2022-09-13T18:06:10.595Z,95172.75
2022-09-13T18:08:13.377Z,95010.53
2022-09-13T18:10:42.636Z,95168.31
2022-09-13T18:12:40.109Z,95168.19
2022-09-13T18:14:42.805Z,95176.28
2022-09-13T18:16:46.610Z,95134.00
2022-09-13T18:18:50.621Z,95188.00
2022-09-13T18:20:53.350Z,95181.53
2022-09-13T18:22:57.358Z,95196.97
2022-09-13T18:25:00.016Z,95190.84
2022-09-13T18:27:03.566Z,95138.25
2022-09-13T18:29:10.397Z,95107.59
2022-09-13T18:31:15.884Z,94643.28
2022-09-13T18:33:20.942Z,95194.72
2022-09-13T18:35:23.669Z,95201.28
2022-09-13T18:37:26.348Z,95211.03
2022-09-13T18:39:30.718Z,95198.00
2022-09-13T18:41:35.227Z,95199.16
2022-09-13T18:43:40.158Z,95006.59
2022-09-13T18:45:43.008Z,95210.31
2022-09-13T18:47:45.913Z,95203.84
2022-09-13T18:49:48.951Z,95203.50
2022-09-13T18:51:51.798Z,95202.44
2022-09-13T18:53:55.618Z,95203.50
2022-09-13T18:56:01.595Z,95207.47
2022-09-13T18:58:05.046Z,95203.84
2022-09-13T19:00:09.530Z,95209.25
2022-09-13T19:02:12.857Z,95214.91
2022-09-13T19:04:17.836Z,95162.41
2022-09-13T19:06:22.796Z,95208.72
2022-09-13T19:08:25.470Z,95206.84
2022-09-13T19:10:28.513Z,95203.03
2022-09-13T19:12:32.519Z,95211.44
2022-09-13T19:14:35.294Z,95222.16
2022-09-13T19:16:37.923Z,95209.41
2022-09-13T19:18:42.925Z,95159.47
2022-09-13T19:20:45.596Z,95210.13
2022-09-13T19:22:48.238Z,95121.22
2022-09-13T19:24:52.408Z,95224.41
2022-09-13T19:26:55.278Z,95223.16
2022-09-13T19:29:04.436Z,95214.97
2022-09-13T19:31:09.368Z,95221.47
2022-09-13T19:33:13.565Z,95222.91
2022-09-13T19:35:16.311Z,95227.69
2022-09-13T19:37:19.112Z,95225.13
2022-09-13T19:39:24.774Z,95192.97
2022-09-13T19:41:30.722Z,95226.25
2022-09-13T19:43:36.937Z,95218.06
2022-09-13T19:45:40.959Z,95220.25
2022-09-13T19:48:25.816Z,95227.94
2022-09-13T19:50:07.545Z,95120.50
2022-09-13T19:52:10.303Z,95208.19
2022-09-13T19:54:14.870Z,95212.59
2022-09-13T19:56:19.134Z,95215.13
2022-09-13T19:58:21.950Z,95068.41
2022-09-13T20:00:24.626Z,95079.94
2022-09-13T20:02:28.610Z,95205.50
2022-09-13T20:04:31.333Z,95154.56
2022-09-13T20:06:36.488Z,95215.97
2022-09-13T20:08:40.191Z,95236.19
2022-09-13T20:10:42.943Z,95000.38
2022-09-13T20:12:45.548Z,95198.88
2022-09-13T20:14:48.176Z,95198.72
2022-09-13T20:16:50.807Z,95206.69
2022-09-13T20:18:57.060Z,95198.72
2022-09-13T20:21:04.672Z,95205.72
2022-09-13T20:23:07.370Z,95199.66
2022-09-13T20:25:11.285Z,95192.81
2022-09-13T20:27:14.399Z,95178.66
2022-09-13T20:29:17.136Z,95166.84
2022-09-13T20:31:19.842Z,95143.41
2022-09-13T20:33:22.957Z,95184.22
2022-09-13T20:35:27.018Z,95176.38
2022-09-13T20:37:29.700Z,95175.00
2022-09-13T20:39:32.384Z,95167.47
2022-09-13T20:41:35.372Z,95112.66
2022-09-13T20:43:38.992Z,95179.19
2022-09-13T20:45:42.286Z,95184.66
2022-09-13T20:47:46.673Z,95172.03
2022-09-13T20:49:49.392Z,95186.97
2022-09-13T20:51:53.514Z,95185.13
2022-09-13T20:54:00.378Z,95182.16
2022-09-13T20:56:03.973Z,95179.78
2022-09-13T20:58:06.675Z,95184.81
2022-09-13T21:00:11.512Z,95182.38
2022-09-13T21:02:14.331Z,95181.03
2022-09-13T21:04:17.523Z,95181.75
2022-09-13T21:06:21.896Z,95177.16
2022-09-13T21:08:42.983Z,95135.88
2022-09-13T21:10:56.067Z,95174.88
2022-09-13T21:13:00.899Z,95171.63
2022-09-13T21:15:03.949Z,95169.59
2022-09-13T21:17:08.090Z,95170.53
2022-09-13T21:19:11.267Z,95172.69
2022-09-13T21:21:17.089Z,95182.16
2022-09-13T21:23:19.712Z,95181.09
2022-09-13T21:25:23.674Z,95005.34
2022-09-13T21:27:26.304Z,95175.53
2022-09-13T21:29:29.627Z,95170.72
2022-09-13T21:31:34.296Z,95002.22
2022-09-13T21:33:37.314Z,95166.66
2022-09-13T21:35:40.294Z,95158.22
2022-09-13T21:37:43.011Z,95168.69
2022-09-13T21:39:45.730Z,95166.59
2022-09-13T21:41:50.032Z,95060.94
2022-09-13T21:43:52.871Z,94932.75
2022-09-13T21:46:03.525Z,95165.72
2022-09-13T21:48:06.657Z,95172.31
2022-09-13T21:50:10.417Z,95166.06
2022-09-13T21:52:13.746Z,95168.28
2022-09-13T21:54:18.392Z,95149.53
2022-09-13T21:56:22.705Z,95143.81
2022-09-13T21:58:27.029Z,95144.63
2022-09-13T22:00:29.793Z,95146.13
2022-09-13T22:02:32.918Z,95144.25
2022-09-13T22:04:35.824Z,95150.44
2022-09-13T22:06:38.569Z,95153.59
2022-09-13T22:08:44.274Z,95156.69
2022-09-13T22:10:46.953Z,95159.22
2022-09-13T22:12:49.696Z,95044.63
2022-09-13T22:14:53.754Z,95094.34
2022-09-13T22:16:56.699Z,95145.09
2022-09-13T22:19:07.969Z,95157.41
2022-09-13T22:21:14.351Z,95152.19
2022-09-13T22:23:17.337Z,95143.25
2022-09-13T22:25:20.015Z,95137.81
2022-09-13T22:27:22.683Z,95150.25
2022-09-13T22:29:25.921Z,95153.78
2022-09-13T22:31:32.580Z,95149.84
2022-09-13T22:33:36.002Z,95149.03
2022-09-13T22:35:38.664Z,95135.50
2022-09-13T22:37:41.416Z,95134.97
2022-09-13T22:39:44.190Z,95125.09
2022-09-13T22:41:47.130Z,95137.19
2022-09-13T22:43:50.299Z,95134.13
2022-09-13T22:45:53.753Z,95068.81
2022-09-13T22:47:57.966Z,95127.31
2022-09-13T22:50:00.674Z,95124.00
2022-09-13T22:52:03.763Z,95128.00
2022-09-13T22:54:07.798Z,95124.69
2022-09-13T22:56:13.720Z,95126.13
2022-09-13T22:58:17.669Z,95120.66
2022-09-13T23:00:20.458Z,95118.03
2022-09-13T23:02:23.197Z,94755.31
2022-09-13T23:04:27.587Z,95114.81
2022-09-13T23:06:31.251Z,95106.50
2022-09-13T23:08:34.594Z,95110.03
2022-09-13T23:10:37.331Z,95107.78
2022-09-13T23:12:40.009Z,95104.25
2022-09-13T23:14:42.709Z,95106.50
2022-09-13T23:16:46.984Z,95038.38
2022-09-13T23:18:49.989Z,95066.84
2022-09-13T23:20:58.495Z,95100.66
2022-09-13T23:23:01.236Z,95104.88
2022-09-13T23:25:04.362Z,95097.13
2022-09-13T23:27:07.868Z,95104.41
2022-09-13T23:29:14.004Z,95111.59
2022-09-13T23:31:19.822Z,95103.19
2022-09-13T23:33:22.637Z,95094.63
2022-09-13T23:35:25.959Z,95085.06
2022-09-13T23:37:30.487Z,94970.72
2022-09-13T23:39:33.287Z,95082.69
2022-09-13T23:41:36.536Z,95081.91
2022-09-13T23:43:39.595Z,95079.72
2022-09-13T23:45:44.030Z,95087.44
2022-09-13T23:47:46.747Z,95086.78
2022-09-13T23:49:49.612Z,95089.28
2022-09-13T23:51:52.768Z,95089.75
2022-09-13T23:53:58.342Z,95090.78
2022-09-13T23:56:01.408Z,95089.97
2022-09-13T23:58:04.099Z,95090.09
